CheckWX is a tool to help pilots better visualize weather data.  It is not intended as a substitute for an official pre-flight weather briefing.

20:03:46 UTC

KSSC TAF
Shaw AFB Airport
Sumter, South Carolina, USA
TAF KSSC 251500Z 2515/2621 30006KT 9999 FEW250 QNH2997INS BECMG 2517/2518 29012KT 9999 FEW055 SCT250 QNH2995INS BECMG 2523/2524 VRB06KT 9999 FEW200 QNH2997INS BECMG 2611/2612 02009KT 9999 FEW050 FEW250 QNH3000INS TX35/2521Z TN21/2611Z

Jun-25@
15:00 UTC

Jun-25 @ 15:00 UTC

Jun-25@
17:00 UTC

Jun-25 @ 17:00 UTC

TAF KSSC 251500Z 2515/2621 30006KT 9999 FEW250 QNH2997INS

Expired

Wind
  • 300° at 6 KTS
Cloud Levels
  • Few at 25,000' AGL

Jun-25@
17:00 UTC

Jun-25 @ 17:00 UTC

Jun-25@
23:00 UTC

Jun-25 @ 23:00 UTC

BECMG 2517/2518 29012KT 9999 FEW055 SCT250 QNH2995INS

Becoming

Becoming Conditions expected by Tue, Jun 25, 2019 @ 18:00 UTC

Wind
  • 290° at 12 KTS
Cloud Levels
  • Few at 5,500' AGL
  • Scattered at 25,000' AGL

Jun-25@
23:00 UTC

Jun-25 @ 23:00 UTC

Jun-26@
11:00 UTC

Jun-26 @ 11:00 UTC

BECMG 2523/2524 VRB06KT 9999 FEW200 QNH2997INS

Becoming

Becoming Conditions expected by Wed, Jun 26, 2019 @ 00:00 UTC

Wind
  • Variable at 6 KTS
Cloud Levels
  • Few at 20,000' AGL

Jun-26@
11:00 UTC

Jun-26 @ 11:00 UTC

Jun-26@
21:00 UTC

Jun-26 @ 21:00 UTC

BECMG 2611/2612 02009KT 9999 FEW050 FEW250 QNH3000INS TX35/2521Z TN21/2611Z

Becoming

Becoming Conditions expected by Wed, Jun 26, 2019 @ 12:00 UTC

Wind
  • 020° at 9 KTS
Cloud Levels
  • Few at 5,000' AGL
  • Few at 25,000' AGL